createdAt,value
2023-08-16T00:00:30.778Z,0.00
2023-08-16T00:01:30.677Z,0.00
2023-08-16T00:02:30.773Z,0.00
2023-08-16T00:03:30.772Z,0.00
2023-08-16T00:04:30.687Z,0.00
2023-08-16T00:05:30.696Z,0.00
2023-08-16T00:06:30.622Z,0.00
2023-08-16T00:07:30.664Z,0.00
2023-08-16T00:08:30.632Z,0.00
2023-08-16T00:09:30.621Z,0.00
2023-08-16T00:10:30.593Z,0.00
2023-08-16T00:11:30.646Z,0.00
2023-08-16T00:12:30.597Z,0.00
2023-08-16T00:13:30.578Z,0.00
2023-08-16T00:14:30.551Z,0.00
2023-08-16T00:15:30.764Z,0.00
2023-08-16T00:16:30.574Z,0.00
2023-08-16T00:17:30.544Z,0.00
2023-08-16T00:18:30.577Z,0.00
2023-08-16T00:19:30.501Z,0.00
2023-08-16T00:20:30.559Z,0.00
2023-08-16T00:21:30.568Z,0.00
2023-08-16T00:22:30.526Z,0.00
2023-08-16T00:23:30.537Z,0.00
2023-08-16T00:24:30.438Z,0.00
2023-08-16T00:25:30.440Z,0.00
2023-08-16T00:26:30.454Z,0.00
2023-08-16T00:27:30.441Z,0.00
2023-08-16T00:28:30.408Z,0.00
2023-08-16T00:29:30.470Z,0.00
2023-08-16T00:30:30.367Z,0.00
2023-08-16T00:31:30.411Z,0.00
2023-08-16T00:32:30.428Z,0.00
2023-08-16T00:33:30.413Z,0.00
2023-08-16T00:34:30.391Z,0.00
2023-08-16T00:35:30.374Z,0.00
2023-08-16T00:36:30.334Z,0.00
2023-08-16T00:37:30.326Z,0.00
2023-08-16T00:38:30.297Z,0.00
2023-08-16T00:39:30.296Z,0.00
2023-08-16T00:40:30.333Z,0.00
2023-08-16T00:41:30.267Z,0.00
2023-08-16T00:42:30.274Z,0.00
2023-08-16T00:43:30.293Z,0.00
2023-08-16T00:44:31.174Z,0.00
2023-08-16T00:45:30.236Z,0.00
2023-08-16T00:46:30.265Z,0.00
2023-08-16T00:47:30.254Z,0.00
2023-08-16T00:48:30.203Z,0.00
2023-08-16T00:49:30.350Z,0.00
2023-08-16T00:50:30.180Z,0.00
2023-08-16T00:51:30.167Z,0.00
2023-08-16T00:52:30.140Z,0.00
2023-08-16T00:53:30.149Z,0.00
2023-08-16T00:54:30.156Z,0.00
2023-08-16T00:55:30.132Z,0.00
2023-08-16T00:56:30.125Z,0.00
2023-08-16T00:57:30.095Z,0.00
2023-08-16T00:58:30.129Z,0.00
2023-08-16T00:59:30.111Z,0.00
2023-08-16T01:00:30.079Z,0.00
2023-08-16T01:01:30.127Z,0.00
2023-08-16T01:02:30.192Z,0.00
2023-08-16T01:03:30.129Z,0.00
2023-08-16T01:04:30.055Z,0.00
2023-08-16T01:05:30.042Z,0.00
2023-08-16T01:06:30.044Z,0.00
2023-08-16T01:07:30.026Z,0.00
2023-08-16T01:08:30.048Z,0.00
2023-08-16T01:09:29.975Z,0.00
2023-08-16T01:10:29.983Z,0.00
2023-08-16T01:11:30.022Z,0.00
2023-08-16T01:12:29.989Z,0.00
2023-08-16T01:13:29.962Z,0.00
2023-08-16T01:14:29.916Z,0.00
2023-08-16T01:15:29.914Z,0.00
2023-08-16T01:16:29.960Z,0.00
2023-08-16T01:17:29.988Z,0.00
2023-08-16T01:18:29.907Z,0.00
2023-08-16T01:19:29.887Z,0.00
2023-08-16T01:20:29.933Z,0.00
2023-08-16T01:21:29.880Z,0.00
2023-08-16T01:22:29.862Z,0.00
2023-08-16T01:23:29.834Z,0.00
2023-08-16T01:24:29.823Z,0.00
2023-08-16T01:25:29.834Z,0.00
2023-08-16T01:26:29.829Z,0.00
2023-08-16T01:27:29.826Z,0.00
2023-08-16T01:28:29.777Z,0.00
2023-08-16T01:29:29.799Z,0.00
2023-08-16T01:30:29.795Z,0.00
2023-08-16T01:31:29.799Z,0.00
2023-08-16T01:32:29.785Z,0.00
2023-08-16T01:33:29.754Z,0.00
2023-08-16T01:34:29.712Z,0.00
2023-08-16T01:35:29.694Z,0.00
2023-08-16T01:36:29.709Z,0.00
2023-08-16T01:37:29.726Z,0.00
2023-08-16T01:38:29.736Z,0.00
2023-08-16T01:39:29.664Z,0.00
2023-08-16T01:40:29.678Z,0.00
2023-08-16T01:41:29.652Z,0.00
2023-08-16T01:42:29.649Z,0.00
2023-08-16T01:43:29.709Z,0.00
2023-08-16T01:44:29.654Z,0.00
2023-08-16T01:45:29.670Z,0.00
2023-08-16T01:46:29.691Z,0.00
2023-08-16T01:47:29.629Z,0.00
2023-08-16T01:48:29.575Z,0.00
2023-08-16T01:49:29.599Z,0.00
2023-08-16T01:50:29.586Z,0.00
2023-08-16T01:51:29.563Z,0.00
2023-08-16T01:52:29.587Z,0.00
2023-08-16T01:53:29.530Z,0.00
2023-08-16T01:54:29.541Z,0.00
2023-08-16T01:55:29.525Z,0.00
2023-08-16T01:56:29.519Z,0.00
2023-08-16T01:57:29.566Z,0.00
2023-08-16T01:58:29.555Z,0.00
2023-08-16T01:59:29.521Z,0.00
2023-08-16T02:00:29.465Z,0.00
2023-08-16T02:01:29.485Z,0.00
2023-08-16T02:02:29.497Z,0.00
2023-08-16T02:03:29.502Z,0.00
2023-08-16T02:04:29.453Z,0.00
2023-08-16T02:05:29.418Z,0.00
2023-08-16T02:06:29.372Z,0.00
2023-08-16T02:07:29.412Z,0.00
2023-08-16T02:08:29.389Z,0.00
2023-08-16T02:09:29.382Z,0.00
2023-08-16T02:10:29.338Z,0.00
2023-08-16T02:11:29.336Z,0.00
2023-08-16T02:12:29.318Z,0.00
2023-08-16T02:13:29.329Z,0.00
2023-08-16T02:14:29.301Z,0.00
2023-08-16T02:15:29.299Z,0.00
2023-08-16T02:16:29.290Z,0.00
2023-08-16T02:17:29.345Z,0.00
2023-08-16T02:18:29.247Z,0.00
2023-08-16T02:19:29.253Z,0.00
2023-08-16T02:20:29.225Z,0.00
2023-08-16T02:21:29.211Z,0.00
2023-08-16T02:22:41.639Z,0.00
2023-08-16T02:23:29.195Z,0.00
2023-08-16T02:24:29.209Z,0.00
2023-08-16T02:25:29.230Z,0.00
2023-08-16T02:26:29.194Z,0.00
2023-08-16T02:27:29.158Z,0.00
2023-08-16T02:28:29.464Z,0.00
2023-08-16T02:29:29.159Z,0.00
2023-08-16T02:30:29.144Z,0.00
2023-08-16T02:31:29.165Z,0.00
2023-08-16T02:32:29.183Z,0.00
2023-08-16T02:33:29.094Z,0.00
2023-08-16T02:34:29.113Z,0.00
2023-08-16T02:35:29.078Z,0.00
2023-08-16T02:36:29.048Z,0.00
2023-08-16T02:37:29.065Z,0.00
2023-08-16T02:38:29.059Z,0.00
2023-08-16T02:39:29.057Z,0.00
2023-08-16T02:40:29.056Z,0.00
2023-08-16T02:41:29.019Z,0.00
2023-08-16T02:42:29.062Z,0.00
2023-08-16T02:43:28.998Z,0.00
2023-08-16T02:44:29.018Z,0.00
2023-08-16T02:45:28.962Z,0.00
2023-08-16T02:46:28.996Z,0.00
2023-08-16T02:47:29.002Z,0.00
2023-08-16T02:48:28.960Z,0.00
2023-08-16T02:49:28.999Z,0.00
2023-08-16T02:50:28.959Z,0.00
2023-08-16T02:51:28.941Z,0.00
2023-08-16T02:52:28.964Z,0.00
2023-08-16T02:53:28.928Z,0.00
2023-08-16T02:54:28.916Z,0.00
2023-08-16T02:55:28.910Z,0.00
2023-08-16T02:56:28.870Z,0.00
2023-08-16T02:57:28.868Z,0.00
2023-08-16T02:58:28.848Z,0.00
2023-08-16T02:59:28.810Z,0.00
2023-08-16T03:00:28.869Z,0.00
2023-08-16T03:01:28.862Z,0.00
2023-08-16T03:02:28.832Z,0.00
2023-08-16T03:03:28.781Z,0.00
2023-08-16T03:04:28.794Z,0.00
2023-08-16T03:05:28.769Z,0.00
2023-08-16T03:06:28.770Z,0.00
2023-08-16T03:07:28.752Z,0.00
2023-08-16T03:08:28.713Z,0.00
2023-08-16T03:09:28.738Z,0.00
2023-08-16T03:10:28.720Z,0.00
2023-08-16T03:11:28.738Z,0.00
2023-08-16T03:12:28.745Z,0.00
2023-08-16T03:13:28.666Z,0.00
2023-08-16T03:14:28.671Z,0.00
2023-08-16T03:15:28.639Z,0.00
2023-08-16T03:16:28.770Z,0.00
2023-08-16T03:17:28.627Z,0.00
2023-08-16T03:18:28.671Z,0.00
2023-08-16T03:19:28.621Z,0.00
2023-08-16T03:20:28.602Z,0.00
2023-08-16T03:21:28.621Z,0.00
2023-08-16T03:22:28.614Z,0.00
2023-08-16T03:23:28.688Z,0.00
2023-08-16T03:24:28.570Z,0.00
2023-08-16T03:25:28.553Z,0.00
2023-08-16T03:26:28.591Z,0.00
2023-08-16T03:27:28.547Z,0.00
2023-08-16T03:28:28.543Z,0.00
2023-08-16T03:29:28.513Z,0.00
2023-08-16T03:30:28.487Z,0.00
2023-08-16T03:31:28.484Z,0.00
2023-08-16T03:32:28.566Z,0.00
2023-08-16T03:33:28.515Z,0.00
2023-08-16T03:34:28.463Z,0.00
2023-08-16T03:35:28.453Z,0.00
2023-08-16T03:36:28.439Z,0.00
2023-08-16T03:37:28.440Z,0.00
2023-08-16T03:38:28.412Z,0.00
2023-08-16T03:39:28.484Z,0.00
2023-08-16T03:40:28.379Z,0.00
2023-08-16T03:41:28.412Z,0.00
2023-08-16T03:42:28.331Z,1.00
2023-08-16T03:43:28.358Z,0.00
2023-08-16T03:44:28.417Z,0.00
2023-08-16T03:45:28.336Z,1.00
2023-08-16T03:46:28.335Z,1.00
2023-08-16T03:47:28.594Z,1.00
2023-08-16T03:48:28.258Z,1.00
2023-08-16T03:49:28.219Z,1.00
2023-08-16T03:50:28.248Z,1.00
2023-08-16T03:51:28.225Z,2.00
2023-08-16T03:52:28.230Z,2.00
2023-08-16T03:53:28.222Z,2.00
2023-08-16T03:54:28.210Z,1.00
2023-08-16T03:55:28.264Z,0.00
2023-08-16T03:56:28.244Z,2.00
2023-08-16T03:57:28.165Z,1.00
2023-08-16T03:58:28.182Z,5.00
2023-08-16T03:59:28.160Z,5.00
2023-08-16T04:00:28.156Z,2.00
2023-08-16T04:01:28.142Z,4.00
2023-08-16T04:02:28.151Z,5.00
2023-08-16T04:03:28.174Z,8.00
2023-08-16T04:04:28.139Z,6.00
2023-08-16T04:05:28.086Z,9.00
2023-08-16T04:06:28.092Z,9.00
2023-08-16T04:07:28.061Z,7.00
2023-08-16T04:08:28.036Z,11.00
2023-08-16T04:09:28.030Z,14.00
2023-08-16T04:10:28.056Z,14.00
2023-08-16T04:11:28.026Z,12.00
2023-08-16T04:12:27.995Z,24.00
2023-08-16T04:13:27.997Z,23.00
2023-08-16T04:14:27.990Z,20.00
2023-08-16T04:15:27.999Z,26.00
2023-08-16T04:16:27.992Z,31.00
2023-08-16T04:17:28.011Z,36.00
2023-08-16T04:18:27.927Z,44.00
2023-08-16T04:19:27.931Z,42.00
2023-08-16T04:20:27.927Z,46.00
2023-08-16T04:21:27.876Z,52.00
2023-08-16T04:22:27.864Z,50.00
2023-08-16T04:23:27.909Z,58.00
2023-08-16T04:24:27.893Z,64.00
2023-08-16T04:25:27.878Z,66.00
2023-08-16T04:26:27.850Z,79.00
2023-08-16T04:27:27.885Z,96.00
2023-08-16T04:28:27.802Z,102.00
2023-08-16T04:29:27.844Z,112.00
2023-08-16T04:30:27.814Z,115.00
2023-08-16T04:31:27.821Z,114.00
2023-08-16T04:32:28.158Z,116.00
2023-08-16T04:33:29.460Z,137.00
2023-08-16T04:34:27.809Z,139.00
2023-08-16T04:35:27.736Z,149.00
2023-08-16T04:36:27.796Z,151.00
2023-08-16T04:37:27.766Z,148.00
2023-08-16T04:38:27.726Z,136.00
2023-08-16T04:39:27.690Z,139.00
2023-08-16T04:40:27.716Z,141.00
2023-08-16T04:41:27.686Z,142.00
2023-08-16T04:42:27.682Z,140.00
2023-08-16T04:43:27.666Z,137.00
2023-08-16T04:44:27.664Z,135.00
2023-08-16T04:45:27.631Z,137.00
2023-08-16T04:46:27.735Z,167.00
2023-08-16T04:47:27.648Z,213.00
2023-08-16T04:48:27.648Z,227.00
2023-08-16T04:49:27.572Z,217.00
2023-08-16T04:50:27.823Z,216.00
2023-08-16T04:51:27.572Z,215.00
2023-08-16T04:52:27.569Z,220.00
2023-08-16T04:53:27.532Z,218.00
2023-08-16T04:54:27.531Z,189.00
2023-08-16T04:55:27.505Z,154.00
2023-08-16T04:56:27.604Z,170.00
2023-08-16T04:57:27.726Z,163.00
2023-08-16T04:58:27.508Z,156.00
2023-08-16T04:59:27.514Z,135.00
2023-08-16T05:00:27.466Z,116.00
2023-08-16T05:01:27.515Z,101.00
2023-08-16T05:02:27.601Z,96.00
2023-08-16T05:03:27.464Z,91.00
2023-08-16T05:04:27.452Z,90.00
2023-08-16T05:05:27.596Z,94.00
2023-08-16T05:06:27.394Z,92.00
2023-08-16T05:07:27.390Z,91.00
2023-08-16T05:08:27.552Z,96.00
2023-08-16T05:09:27.390Z,96.00
2023-08-16T05:10:27.428Z,85.00
2023-08-16T05:11:27.352Z,82.00
2023-08-16T05:12:27.362Z,81.00
2023-08-16T05:13:27.333Z,93.00
2023-08-16T05:14:27.366Z,105.00
2023-08-16T05:15:27.317Z,107.00
2023-08-16T05:16:27.334Z,107.00
2023-08-16T05:17:27.639Z,103.00
2023-08-16T05:18:27.270Z,101.00
2023-08-16T05:19:27.276Z,100.00
2023-08-16T05:20:27.267Z,99.00
2023-08-16T05:21:27.229Z,101.00
2023-08-16T05:22:27.229Z,96.00
2023-08-16T05:23:27.265Z,96.00
2023-08-16T05:24:27.193Z,89.00
2023-08-16T05:25:27.261Z,86.00
2023-08-16T05:26:27.221Z,91.00
2023-08-16T05:27:27.173Z,103.00
2023-08-16T05:28:27.145Z,106.00
2023-08-16T05:29:29.359Z,100.00
2023-08-16T05:30:27.157Z,99.00
2023-08-16T05:31:27.186Z,89.00
2023-08-16T05:32:27.196Z,88.00
2023-08-16T05:33:27.648Z,88.00
2023-08-16T05:34:27.677Z,84.00
2023-08-16T05:35:28.343Z,89.00
2023-08-16T05:36:27.476Z,97.00
2023-08-16T05:37:27.317Z,94.00
2023-08-16T05:38:27.028Z,94.00
2023-08-16T05:39:27.066Z,100.00
2023-08-16T05:40:27.639Z,115.00
2023-08-16T05:41:27.028Z,132.00
2023-08-16T05:42:26.999Z,149.00
2023-08-16T05:43:27.002Z,158.00
2023-08-16T05:44:26.996Z,168.00
2023-08-16T05:45:27.048Z,184.00
2023-08-16T05:46:27.002Z,188.00
2023-08-16T05:47:27.217Z,186.00
2023-08-16T05:48:26.957Z,182.00
2023-08-16T05:49:26.943Z,178.00
2023-08-16T05:50:26.913Z,164.00
2023-08-16T05:51:26.910Z,161.00
2023-08-16T05:52:26.931Z,178.00
2023-08-16T05:53:26.894Z,201.00
2023-08-16T05:54:26.862Z,222.00
2023-08-16T05:55:26.877Z,235.00
2023-08-16T05:56:26.854Z,246.00
2023-08-16T05:57:27.007Z,275.00
2023-08-16T05:58:26.834Z,306.00
2023-08-16T05:59:26.819Z,331.00
2023-08-16T06:00:26.876Z,351.00
2023-08-16T06:01:26.955Z,359.00
2023-08-16T06:02:26.823Z,378.00
2023-08-16T06:03:26.868Z,393.00
2023-08-16T06:04:26.766Z,390.00
2023-08-16T06:05:26.865Z,371.00
2023-08-16T06:06:26.746Z,341.00
2023-08-16T06:07:27.032Z,314.00
2023-08-16T06:08:27.151Z,308.00
2023-08-16T06:09:26.744Z,292.00
2023-08-16T06:10:26.701Z,279.00
2023-08-16T06:11:26.688Z,274.00
2023-08-16T06:12:26.715Z,267.00
2023-08-16T06:13:26.756Z,278.00
2023-08-16T06:14:26.644Z,296.00
2023-08-16T06:15:26.634Z,320.00
2023-08-16T06:16:26.664Z,372.00
2023-08-16T06:17:26.969Z,408.00
2023-08-16T06:18:26.598Z,425.00
2023-08-16T06:19:26.601Z,432.00
2023-08-16T06:20:26.600Z,422.00
2023-08-16T06:21:26.631Z,438.00
2023-08-16T06:22:26.627Z,468.00
2023-08-16T06:23:26.554Z,512.00
2023-08-16T06:24:26.631Z,548.00
2023-08-16T06:25:26.566Z,596.00
2023-08-16T06:26:26.635Z,668.00
2023-08-16T06:27:26.824Z,711.00
2023-08-16T06:28:26.785Z,714.00
2023-08-16T06:29:26.493Z,748.00
2023-08-16T06:30:26.507Z,805.00
2023-08-16T06:31:26.568Z,854.00
2023-08-16T06:32:26.568Z,866.00
2023-08-16T06:33:26.617Z,870.00
2023-08-16T06:34:26.526Z,873.00
2023-08-16T06:35:26.421Z,877.00
2023-08-16T06:36:26.410Z,866.00
2023-08-16T06:37:26.582Z,867.00
2023-08-16T06:38:26.443Z,862.00
2023-08-16T06:39:26.428Z,872.00
2023-08-16T06:40:26.462Z,864.00
2023-08-16T06:41:26.498Z,866.00
2023-08-16T06:42:26.381Z,886.00
2023-08-16T06:43:26.336Z,937.00
2023-08-16T06:44:26.338Z,959.00
2023-08-16T06:45:26.321Z,1035.00
2023-08-16T06:46:26.767Z,1122.00
2023-08-16T06:47:26.709Z,1192.00
2023-08-16T06:48:26.330Z,1260.00
2023-08-16T06:49:26.375Z,1324.00
2023-08-16T06:50:26.318Z,1376.00
2023-08-16T06:51:26.279Z,1433.00
2023-08-16T06:52:27.258Z,1508.00
2023-08-16T06:53:26.241Z,1584.00
2023-08-16T06:54:26.277Z,1658.00
2023-08-16T06:55:26.225Z,1787.00
2023-08-16T06:56:26.321Z,1765.00
2023-08-16T06:57:26.558Z,1740.00
2023-08-16T06:58:26.277Z,1679.00
2023-08-16T06:59:26.190Z,1613.00
2023-08-16T07:00:26.212Z,1526.00
2023-08-16T07:01:26.247Z,1505.00
2023-08-16T07:02:28.962Z,1526.00
2023-08-16T07:03:26.270Z,1454.00
2023-08-16T07:04:26.158Z,1348.00
2023-08-16T07:05:26.110Z,1264.00
2023-08-16T07:06:26.148Z,1181.00
2023-08-16T07:07:26.105Z,1193.00
2023-08-16T07:08:26.111Z,1278.00
2023-08-16T07:09:26.153Z,1358.00
2023-08-16T07:10:26.056Z,1475.00
2023-08-16T07:11:26.109Z,1655.00
2023-08-16T07:12:26.308Z,1539.00
2023-08-16T07:13:26.026Z,1458.00
2023-08-16T07:14:26.066Z,1657.00
2023-08-16T07:15:26.067Z,1944.00
2023-08-16T07:16:26.042Z,1967.00
2023-08-16T07:17:26.013Z,1907.00
2023-08-16T07:18:25.959Z,2251.00
2023-08-16T07:19:25.999Z,2342.00
2023-08-16T07:20:25.975Z,2492.00
2023-08-16T07:21:25.981Z,2650.00
2023-08-16T07:22:26.460Z,3063.00
2023-08-16T07:23:25.939Z,3195.00
2023-08-16T07:24:25.930Z,3335.00
2023-08-16T07:25:25.937Z,3289.00
2023-08-16T07:26:25.924Z,3304.00
2023-08-16T07:27:25.957Z,4220.00
2023-08-16T07:28:25.904Z,4140.00
2023-08-16T07:29:25.870Z,4427.00
2023-08-16T07:30:25.847Z,4146.00
2023-08-16T07:31:25.985Z,4477.00
2023-08-16T07:32:26.140Z,4524.00
2023-08-16T07:33:25.833Z,4575.00
2023-08-16T07:34:25.786Z,4732.00
2023-08-16T07:35:25.793Z,4912.00
2023-08-16T07:36:25.840Z,4815.00
2023-08-16T07:37:25.797Z,4708.00
2023-08-16T07:38:25.778Z,4374.00
2023-08-16T07:39:25.835Z,3949.00
2023-08-16T07:40:25.729Z,3984.00
2023-08-16T07:41:25.779Z,6188.00
2023-08-16T07:42:26.003Z,5277.00
2023-08-16T07:43:25.697Z,4578.00
2023-08-16T07:44:25.721Z,4048.00
2023-08-16T07:45:25.697Z,3681.00
2023-08-16T07:46:25.772Z,3307.00
2023-08-16T07:47:25.666Z,3263.00
2023-08-16T07:48:25.646Z,3124.00
2023-08-16T07:49:25.683Z,3008.00
2023-08-16T07:50:25.699Z,2781.00
2023-08-16T07:51:25.660Z,3253.00
2023-08-16T07:52:25.876Z,3601.00
2023-08-16T07:53:25.677Z,4025.00
2023-08-16T07:54:25.599Z,4543.00
2023-08-16T07:55:25.573Z,4630.00
2023-08-16T07:56:25.612Z,4267.00
2023-08-16T07:57:25.560Z,3957.00
2023-08-16T07:58:25.551Z,3496.00
2023-08-16T07:59:25.587Z,3312.00
2023-08-16T08:00:25.525Z,3326.00
2023-08-16T08:01:25.572Z,3580.00
2023-08-16T08:02:27.907Z,4279.00
2023-08-16T08:03:25.583Z,3970.00
2023-08-16T08:04:25.483Z,4046.00
2023-08-16T08:05:25.591Z,4216.00
2023-08-16T08:06:25.460Z,3974.00
2023-08-16T08:07:25.521Z,3491.00
2023-08-16T08:08:25.438Z,3420.00
2023-08-16T08:09:25.491Z,3749.00
2023-08-16T08:10:25.423Z,3935.00
2023-08-16T08:11:25.457Z,4573.00
2023-08-16T08:12:25.907Z,4999.00
2023-08-16T08:13:25.451Z,5112.00
2023-08-16T08:14:25.445Z,5054.00
2023-08-16T08:15:25.386Z,4709.00
2023-08-16T08:16:25.549Z,4196.00
2023-08-16T08:17:25.366Z,3686.00
2023-08-16T08:18:25.384Z,3640.00
2023-08-16T08:19:25.312Z,3612.00
2023-08-16T08:20:25.293Z,3404.00
2023-08-16T08:21:25.317Z,3345.00
2023-08-16T08:22:25.560Z,3257.00
2023-08-16T08:23:25.315Z,3280.00
2023-08-16T08:24:25.289Z,5116.00
2023-08-16T08:25:25.269Z,4210.00
2023-08-16T08:26:25.282Z,4046.00
2023-08-16T08:27:25.251Z,4038.00
2023-08-16T08:28:25.218Z,3799.00
2023-08-16T08:29:25.978Z,6658.00
2023-08-16T08:30:25.238Z,7373.00
2023-08-16T08:31:25.239Z,5464.00
2023-08-16T08:32:25.422Z,4438.00
2023-08-16T08:33:25.186Z,4450.00
2023-08-16T08:34:25.222Z,4645.00
2023-08-16T08:35:25.220Z,2310.00
2023-08-16T08:36:25.247Z,17894.00
2023-08-16T08:37:25.170Z,8372.00
2023-08-16T08:38:25.141Z,10980.00
2023-08-16T08:39:25.144Z,6528.00
2023-08-16T08:40:25.094Z,6481.00
2023-08-16T08:41:30.938Z,1933.00
2023-08-16T08:42:25.073Z,14147.00
2023-08-16T08:43:25.158Z,3242.00
2023-08-16T08:44:25.060Z,19316.00
2023-08-16T08:45:25.135Z,12651.00
2023-08-16T08:46:25.024Z,7533.00
2023-08-16T08:47:25.020Z,6396.00
2023-08-16T08:48:25.032Z,7613.00
2023-08-16T08:49:25.021Z,6623.00
2023-08-16T08:50:24.970Z,7250.00
2023-08-16T08:51:25.003Z,6560.00
2023-08-16T08:52:25.264Z,5154.00
2023-08-16T08:53:24.965Z,7670.00
2023-08-16T08:54:24.968Z,7432.00
2023-08-16T08:55:24.993Z,8020.00
2023-08-16T08:56:24.932Z,7953.00
2023-08-16T08:57:24.987Z,7719.00
2023-08-16T08:58:24.901Z,7802.00
2023-08-16T08:59:24.921Z,7931.00
2023-08-16T09:00:24.903Z,7631.00
2023-08-16T09:01:24.911Z,7385.00
2023-08-16T09:02:25.149Z,7387.00
2023-08-16T09:03:25.001Z,7661.00
2023-08-16T09:04:24.840Z,7108.00
2023-08-16T09:05:24.890Z,5289.00
2023-08-16T09:06:24.876Z,4993.00
2023-08-16T09:07:24.831Z,4682.00
2023-08-16T09:08:24.800Z,4064.00
2023-08-16T09:09:24.819Z,4751.00
2023-08-16T09:10:24.795Z,4895.00
2023-08-16T09:11:24.817Z,4045.00
2023-08-16T09:12:24.987Z,5384.00
2023-08-16T09:13:24.763Z,4912.00
2023-08-16T09:14:24.771Z,4006.00
2023-08-16T09:15:24.787Z,3263.00
2023-08-16T09:16:24.784Z,2681.00
2023-08-16T09:17:24.890Z,2217.00
2023-08-16T09:18:25.442Z,1964.00
2023-08-16T09:19:24.712Z,2387.00
2023-08-16T09:20:24.714Z,3856.00
2023-08-16T09:21:24.668Z,3880.00
2023-08-16T09:22:24.999Z,3368.00
2023-08-16T09:23:24.722Z,2867.00
2023-08-16T09:24:24.649Z,2570.00
2023-08-16T09:25:24.642Z,2437.00
2023-08-16T09:26:24.706Z,2244.00
2023-08-16T09:27:24.632Z,2088.00
2023-08-16T09:28:24.629Z,1904.00
2023-08-16T09:29:24.632Z,1835.00
2023-08-16T09:30:24.706Z,1859.00
2023-08-16T09:31:24.597Z,1873.00
2023-08-16T09:32:26.730Z,1956.00
2023-08-16T09:33:24.599Z,1823.00
2023-08-16T09:34:35.332Z,1996.00
2023-08-16T09:35:24.589Z,2640.00
2023-08-16T09:36:24.533Z,2813.00
2023-08-16T09:37:25.067Z,3008.00
2023-08-16T09:39:24.525Z,2891.00
2023-08-16T09:40:24.479Z,2602.00
2023-08-16T09:41:24.545Z,2213.00
2023-08-16T09:42:24.711Z,3115.00
2023-08-16T09:43:24.443Z,2885.00
2023-08-16T09:44:24.455Z,3081.00
2023-08-16T09:45:24.521Z,2915.00
2023-08-16T09:46:24.452Z,3215.00
2023-08-16T09:47:40.827Z,3359.00
2023-08-16T09:48:24.459Z,3020.00
2023-08-16T09:49:24.389Z,1923.00
2023-08-16T09:50:24.420Z,3863.00
2023-08-16T09:52:13.316Z,4476.00
2023-08-16T09:52:24.390Z,4990.00
2023-08-16T09:54:24.527Z,5374.00
2023-08-16T09:55:24.344Z,4731.00
2023-08-16T09:58:24.336Z,4507.00
2023-08-16T10:00:24.295Z,5185.00
2023-08-16T10:02:50.144Z,5960.00
2023-08-16T10:03:24.297Z,5804.00
2023-08-16T10:05:27.731Z,4943.00
2023-08-16T10:07:24.227Z,3302.00
2023-08-16T10:08:24.216Z,2912.00
2023-08-16T10:09:24.174Z,3067.00
2023-08-16T10:10:24.170Z,3329.00
2023-08-16T10:11:24.279Z,3583.00
2023-08-16T10:12:24.400Z,3658.00
2023-08-16T10:13:24.140Z,3893.00
2023-08-16T10:14:24.132Z,3345.00
2023-08-16T10:15:24.169Z,3550.00
2023-08-16T10:16:24.161Z,3193.00
2023-08-16T10:17:24.100Z,3015.00
2023-08-16T10:18:24.126Z,2940.00
2023-08-16T10:19:24.095Z,3215.00
2023-08-16T10:20:24.112Z,3091.00
2023-08-16T10:21:24.079Z,3039.00
2023-08-16T10:23:24.041Z,3252.00
2023-08-16T10:26:24.037Z,2557.00
2023-08-16T10:27:24.017Z,2246.00
2023-08-16T10:28:24.015Z,2880.00
2023-08-16T10:29:24.029Z,2926.00
2023-08-16T10:30:24.035Z,3058.00
2023-08-16T10:31:24.068Z,2473.00
2023-08-16T10:32:24.169Z,2973.00
2023-08-16T10:33:23.950Z,3188.00
2023-08-16T10:34:23.958Z,2881.00
2023-08-16T10:35:23.940Z,3256.00
2023-08-16T10:36:23.937Z,3706.00
2023-08-16T10:37:25.922Z,3776.00
2023-08-16T10:38:23.960Z,3831.00
2023-08-16T10:39:23.883Z,4142.00
2023-08-16T10:40:26.215Z,3506.00
2023-08-16T10:41:23.955Z,3113.00
2023-08-16T10:42:23.953Z,3059.00
2023-08-16T10:43:23.856Z,3072.00
2023-08-16T10:44:23.862Z,2878.00
2023-08-16T10:45:23.820Z,2659.00
2023-08-16T10:46:23.891Z,2602.00
2023-08-16T10:47:23.983Z,2722.00
2023-08-16T10:48:23.800Z,2699.00
2023-08-16T10:49:23.790Z,3266.00
2023-08-16T10:50:23.774Z,3296.00
2023-08-16T10:51:23.770Z,3123.00
2023-08-16T10:52:24.158Z,2940.00
2023-08-16T10:53:23.793Z,3172.00
2023-08-16T10:54:23.722Z,2649.00
2023-08-16T10:55:23.711Z,2794.00
2023-08-16T10:56:23.699Z,2849.00
2023-08-16T10:57:23.858Z,2544.00
2023-08-16T10:58:23.689Z,2544.00
2023-08-16T10:59:23.663Z,2740.00
2023-08-16T11:00:23.710Z,3102.00
2023-08-16T11:01:23.705Z,3129.00
2023-08-16T11:02:23.681Z,3236.00
2023-08-16T11:03:23.653Z,1281.00
2023-08-16T11:04:23.624Z,3272.00
2023-08-16T11:05:23.672Z,5162.00
2023-08-16T11:06:23.598Z,3851.00
2023-08-16T11:07:23.825Z,4589.00
2023-08-16T11:08:23.634Z,4080.00
2023-08-16T11:09:23.572Z,3727.00
2023-08-16T11:10:23.548Z,4817.00
2023-08-16T11:11:23.541Z,4415.00
2023-08-16T11:12:23.569Z,4580.00
2023-08-16T11:13:23.544Z,4155.00
2023-08-16T11:14:23.530Z,4043.00
2023-08-16T11:15:23.630Z,4123.00
2023-08-16T11:16:23.553Z,4237.00
2023-08-16T11:17:23.835Z,4474.00
2023-08-16T11:18:27.327Z,4307.00
2023-08-16T11:19:23.572Z,4379.00
2023-08-16T11:20:23.529Z,4445.00
2023-08-16T11:21:23.447Z,4353.00
2023-08-16T11:22:23.843Z,2282.00
2023-08-16T11:23:23.456Z,4028.00
2023-08-16T11:24:23.426Z,4725.00
2023-08-16T11:25:23.439Z,5971.00
2023-08-16T11:26:23.415Z,5357.00
2023-08-16T11:27:23.382Z,4954.00
2023-08-16T11:28:23.375Z,4704.00
2023-08-16T11:29:23.381Z,3680.00
2023-08-16T11:30:23.385Z,3578.00
2023-08-16T11:31:23.395Z,2685.00
2023-08-16T11:32:23.503Z,4445.00
2023-08-16T11:33:24.429Z,1876.00
2023-08-16T11:34:23.304Z,5250.00
2023-08-16T11:35:23.311Z,6466.00
2023-08-16T11:36:23.312Z,5532.00
2023-08-16T11:37:23.319Z,4426.00
2023-08-16T11:38:23.275Z,4080.00
2023-08-16T11:39:23.264Z,3960.00
2023-08-16T11:40:23.380Z,4431.00
2023-08-16T11:41:23.232Z,4582.00
2023-08-16T11:42:23.478Z,4067.00
2023-08-16T11:43:23.265Z,3843.00
2023-08-16T11:44:23.214Z,4232.00
2023-08-16T11:45:23.269Z,4751.00
2023-08-16T11:46:23.203Z,5394.00
2023-08-16T11:47:23.439Z,6345.00
2023-08-16T11:48:23.211Z,5132.00
2023-08-16T11:49:23.435Z,4478.00
2023-08-16T11:50:23.169Z,4367.00
2023-08-16T11:51:23.152Z,4123.00
2023-08-16T11:52:23.134Z,3970.00
2023-08-16T11:53:23.130Z,3811.00
2023-08-16T11:54:23.357Z,2869.00
2023-08-16T11:55:23.099Z,3710.00
2023-08-16T11:56:23.089Z,3451.00
2023-08-16T11:57:23.305Z,1580.00
2023-08-16T11:58:23.131Z,4257.00
2023-08-16T11:59:23.087Z,3677.00
2023-08-16T12:00:23.124Z,4002.00
2023-08-16T12:01:23.142Z,4808.00
2023-08-16T12:02:23.032Z,6601.00
2023-08-16T12:03:23.070Z,5226.00
2023-08-16T12:04:23.248Z,4197.00
2023-08-16T12:05:23.039Z,4736.00
2023-08-16T12:06:23.028Z,4897.00
2023-08-16T12:07:23.459Z,4440.00
2023-08-16T12:08:23.079Z,4420.00
2023-08-16T12:09:22.969Z,4204.00
2023-08-16T12:10:22.980Z,3830.00
2023-08-16T12:11:23.359Z,3147.00
2023-08-16T12:12:22.946Z,2361.00
2023-08-16T12:13:22.981Z,4344.00
2023-08-16T12:14:22.911Z,3555.00
2023-08-16T12:15:22.901Z,2720.00
2023-08-16T12:16:22.940Z,2603.00
2023-08-16T12:17:23.062Z,4623.00
2023-08-16T12:18:22.995Z,4089.00
2023-08-16T12:19:22.891Z,2490.00
2023-08-16T12:20:22.875Z,3087.00
2023-08-16T12:21:22.853Z,2148.00
2023-08-16T12:22:22.844Z,5688.00
2023-08-16T12:23:22.805Z,3233.00
2023-08-16T12:24:22.835Z,1906.00
2023-08-16T12:25:22.803Z,4019.00
2023-08-16T12:26:23.100Z,2835.00
2023-08-16T12:27:23.522Z,3404.00
2023-08-16T12:28:22.805Z,2745.00
2023-08-16T12:29:22.757Z,2363.00
2023-08-16T12:30:22.796Z,1809.00
2023-08-16T12:31:22.811Z,2368.00
2023-08-16T12:32:22.765Z,2530.00
2023-08-16T12:33:22.734Z,2022.00
2023-08-16T12:34:22.721Z,1899.00
2023-08-16T12:35:22.714Z,2968.00
2023-08-16T12:36:22.757Z,2002.00
2023-08-16T12:37:22.913Z,4628.00
2023-08-16T12:38:22.668Z,2034.00
2023-08-16T12:39:22.689Z,2112.00
2023-08-16T12:40:22.667Z,4317.00
2023-08-16T12:41:22.645Z,1897.00
2023-08-16T12:42:23.049Z,2835.00
2023-08-16T12:43:24.271Z,4859.00
2023-08-16T12:44:22.634Z,2178.00
2023-08-16T12:45:22.891Z,3080.00